Terminal Aerodrome Forecast
Issued by NWS Mt. Holly, NJ

Home | Current Version | Previous Version | Text Only | Print | Product List | Glossary On
Versions: 1 2 3 4 5 6 7 8 9 10 11 12 13 14 15 16 17
000
FTUS41 KPHI 312300
TAFABE
TAF
KABE 312320Z 0100/0124 19004KT P6SM SCT070
     FM010600 VRB02KT P6SM SCT070 BKN180
      TEMPO 0109/0113 6SM BR
     FM011300 20006KT P6SM SCT060 BKN120=

USA.gov is the U.S. government's official web portal to all federal, state and local government web resources and services.